Cardak, Turkey

8:35 PM EEST on July 30, 2016 (GMT +0300)
Suleyman Demirel | | Change Station

Elev 2835 ft 37.86 °N, 30.37 °E | Updated 15 minutes ago

Scattered Clouds
Scattered Clouds
82 °F
Feels Like 81 °F
N
14
Wind Variable Wind from NE

Today
High -- | Low -- °F
--% Chance of Precip.
Yesterday
High -- | Low -- °F
Precip. -- in
Pressure 29.83 in
Visibility 6.2 miles
Clouds Scattered Clouds 3500 ft
Heat Index 81 °F
Dew Point 54 °F
Humidity 37%
Rainfall 0.00 in
Snow Depth Not available.
6:03 AM 8:11 PM
Waning Crescent, 12% visible
METAR LTFC 301720Z 05012KT 9999 SCT035 28/12 Q1010 RMK RWY23 05012KT
Pressure 29.83 in
Visibility 6.2 miles
Clouds Scattered Clouds 3500 ft
Heat Index 81 °F
Dew Point 54 °F
Humidity 37%
Rainfall 0.00 in
Snow Depth Not available.
6:03 AM 8:11 PM
Waning Crescent, 12% visible
METAR LTFC 301720Z 05012KT 9999 SCT035 28/12 Q1010 RMK RWY23 05012KT

10-Day Weather Forecast

×

Almanac

Astronomy

Jul. 30, 2016 Rise Set
Actual Time
Civil Twilight
Nautical Twilight
Astronomical Twilight
Moon
Length of Visible Light
Length of Day
Tomorrow will be .
, % of the Moon is Illuminated

Today's Extremes

Country Highs Country Lows

Community

WunderPhotos

Upload Photos

1,928,600 photos uploaded!

WunderBlog® & News

Nearby

Air Quality

  Air Quality AQ Index Pollutant
Not available.

Snow Depth

Station Depth Elevation

Earthquake Activity

City Distance Mag. Time & Date
Minimum magnitude displayed is 2.5.

Coastal Water Temperatures

Place Temperature

Stations

Nearby Weather Stations

Station Location Temp. Windchill Dew Point Humidity Wind Precip. Elev Updated Type